Terminal Aerodrome Forecast
Issued by NWS

Home | Current Version | Previous Version | Text Only | Print | Product List | Glossary Off
Versions: 1 2 3 4 5 6 7 8 9 10 11 12 13 14 15 16 17 18 19 20 21 22 23

000
FTUS43 KMPX 210500
TAFAXN
TAF
KAXN 210520Z 2106/2206 17007KT 6SM BR SCT030
      TEMPO 2109/2112 3SM BR
     FM211400 16010G16KT P6SM FEW060 SCT150
     FM220200 16008KT P6SM VCSH OVC150 PROB30 2202/2203 27020G30KT
      3SM TSRA FEW040CB OVC150
     FM220400 20008KT P6SM FEW030 OVC150=

USA.gov is the U.S. government's official web portal to all federal, state and local government web resources and services.